createdAt,value
2017-08-26T00:00:25.053Z,15.00
2017-08-26T00:03:07.948Z,10.50
2017-08-26T00:05:37.066Z,9.80
2017-08-26T00:08:05.426Z,11.03
2017-08-26T00:10:33.787Z,12.03
2017-08-26T00:13:02.393Z,14.43
2017-08-26T00:15:30.754Z,11.90
2017-08-26T00:17:59.126Z,11.17
2017-08-26T00:20:27.605Z,12.33
2017-08-26T00:22:55.946Z,15.40
2017-08-26T00:25:24.302Z,10.90
2017-08-26T00:27:52.665Z,12.43
2017-08-26T00:30:21.032Z,15.27
2017-08-26T00:32:49.407Z,13.77
2017-08-26T00:35:17.767Z,14.97
2017-08-26T00:37:46.145Z,14.97
2017-08-26T00:40:14.764Z,16.10
2017-08-26T00:42:43.375Z,14.80
2017-08-26T00:45:11.753Z,14.13
2017-08-26T00:47:40.114Z,14.43
2017-08-26T00:50:08.478Z,14.10
2017-08-26T00:52:36.837Z,17.67
2017-08-26T00:55:05.204Z,17.13
2017-08-26T00:57:33.553Z,21.80
2017-08-26T01:00:01.927Z,14.90
2017-08-26T01:02:30.300Z,16.43
2017-08-26T01:04:58.415Z,17.33
2017-08-26T01:07:31.602Z,15.90
2017-08-26T01:09:59.991Z,15.93
2017-08-26T01:12:28.358Z,17.83
2017-08-26T01:14:56.719Z,16.90
2017-08-26T01:17:25.090Z,17.40
2017-08-26T01:19:53.451Z,16.47
2017-08-26T01:22:21.815Z,16.57
2017-08-26T01:24:50.187Z,19.03
2017-08-26T01:27:18.664Z,18.50
2017-08-26T01:29:47.019Z,20.20
2017-08-26T01:32:16.144Z,19.33
2017-08-26T01:34:44.712Z,21.97
2017-08-26T01:37:14.691Z,18.30
2017-08-26T01:39:43.815Z,20.63
2017-08-26T01:42:12.171Z,18.80
2017-08-26T01:44:40.517Z,18.07
2017-08-26T01:47:08.878Z,20.17
2017-08-26T01:49:37.237Z,16.43
2017-08-26T01:52:05.804Z,18.53
2017-08-26T01:54:34.149Z,19.67
2017-08-26T01:57:02.654Z,17.50
2017-08-26T01:59:31.762Z,21.17
2017-08-26T02:02:00.363Z,20.20
2017-08-26T02:04:28.717Z,17.97
2017-08-26T02:06:57.091Z,17.73
2017-08-26T02:09:25.662Z,18.60
2017-08-26T02:11:54.034Z,18.97
2017-08-26T02:14:22.377Z,22.97
2017-08-26T02:16:51.518Z,20.33
2017-08-26T02:19:19.894Z,21.03
2017-08-26T02:21:48.263Z,18.90
2017-08-26T02:24:16.837Z,20.00
2017-08-26T02:26:45.191Z,18.30
2017-08-26T02:29:13.547Z,18.20
2017-08-26T02:31:41.898Z,17.83
2017-08-26T02:34:10.338Z,17.57
2017-08-26T02:36:38.713Z,18.50
2017-08-26T02:39:07.078Z,18.00
2017-08-26T02:41:35.445Z,17.43
2017-08-26T02:44:03.821Z,18.47
2017-08-26T02:46:32.218Z,19.37
2017-08-26T02:49:00.562Z,18.90
2017-08-26T02:51:28.959Z,21.03
2017-08-26T02:53:57.324Z,19.07
2017-08-26T02:56:25.719Z,19.50
2017-08-26T02:58:54.095Z,22.90
2017-08-26T03:01:22.447Z,25.43
2017-08-26T03:03:50.809Z,20.63
2017-08-26T03:06:19.222Z,20.07
2017-08-26T03:08:47.574Z,19.80
2017-08-26T03:11:16.899Z,21.70
2017-08-26T03:13:45.277Z,20.07
2017-08-26T03:16:13.631Z,20.00
2017-08-26T03:18:41.981Z,18.10
2017-08-26T03:21:10.339Z,20.70
2017-08-26T03:23:38.775Z,16.83
2017-08-26T03:26:07.153Z,19.07
2017-08-26T03:28:35.534Z,18.33
2017-08-26T03:31:03.901Z,18.00
2017-08-26T03:33:32.278Z,17.23
2017-08-26T03:36:00.879Z,22.03
2017-08-26T03:38:29.338Z,18.23
2017-08-26T03:40:57.711Z,19.40
2017-08-26T03:43:26.057Z,21.33
2017-08-26T03:45:55.386Z,20.80
2017-08-26T03:48:23.809Z,18.60
2017-08-26T03:50:52.186Z,20.50
2017-08-26T03:53:20.819Z,19.87
2017-08-26T03:55:49.173Z,18.23
2017-08-26T03:58:17.572Z,17.53
2017-08-26T04:00:46.011Z,18.90
2017-08-26T04:03:14.422Z,18.00
2017-08-26T04:05:42.801Z,18.73
2017-08-26T04:08:11.174Z,17.80
2017-08-26T04:10:39.516Z,16.70
2017-08-26T04:13:07.886Z,18.10
2017-08-26T04:15:36.064Z,17.50
2017-08-26T04:18:04.425Z,19.43
2017-08-26T04:20:32.797Z,18.43
2017-08-26T04:23:01.333Z,17.90
2017-08-26T04:25:29.678Z,17.33
2017-08-26T04:27:58.026Z,19.40
2017-08-26T04:30:26.382Z,17.50
2017-08-26T04:32:54.737Z,16.90
2017-08-26T04:35:23.099Z,17.43
2017-08-26T04:37:51.449Z,15.90
2017-08-26T04:40:19.961Z,17.50
2017-08-26T04:42:48.335Z,21.63
2017-08-26T04:45:16.711Z,17.23
2017-08-26T04:47:45.147Z,18.30
2017-08-26T04:50:14.270Z,16.00
2017-08-26T04:52:42.632Z,16.33
2017-08-26T04:55:11.005Z,15.67
2017-08-26T04:57:39.509Z,17.90
2017-08-26T05:00:07.889Z,18.60
2017-08-26T05:02:36.363Z,22.70
2017-08-26T05:05:04.718Z,23.40
2017-08-26T05:07:33.066Z,22.10
2017-08-26T05:10:01.432Z,25.97
2017-08-26T05:12:30.074Z,25.13
2017-08-26T05:14:58.460Z,26.97
2017-08-26T05:17:26.810Z,28.40
2017-08-26T05:19:55.174Z,28.63
2017-08-26T05:22:23.541Z,24.93
2017-08-26T05:24:51.907Z,29.37
2017-08-26T05:27:20.307Z,25.37
2017-08-26T05:29:48.678Z,28.07
2017-08-26T05:32:16.853Z,33.67
2017-08-26T05:34:45.201Z,29.10
2017-08-26T05:37:13.788Z,25.17
2017-08-26T05:39:42.147Z,31.43
2017-08-26T05:42:10.510Z,35.30
2017-08-26T05:44:38.957Z,33.90
2017-08-26T05:47:07.310Z,32.00
2017-08-26T05:49:35.809Z,33.63
2017-08-26T05:52:04.084Z,30.33
2017-08-26T05:54:32.426Z,26.40
2017-08-26T05:57:00.939Z,26.43
2017-08-26T05:59:29.295Z,25.10
2017-08-26T06:01:57.586Z,24.93
2017-08-26T06:04:25.934Z,22.27
2017-08-26T06:06:54.706Z,23.77
2017-08-26T06:09:23.074Z,26.57
2017-08-26T06:11:51.444Z,22.93
2017-08-26T06:14:19.803Z,22.17
2017-08-26T06:16:48.154Z,24.63
2017-08-26T06:19:16.672Z,25.30
2017-08-26T06:21:45.206Z,23.53
2017-08-26T06:24:13.649Z,24.37
2017-08-26T06:26:42.062Z,22.43
2017-08-26T06:29:10.438Z,26.83
2017-08-26T06:31:38.802Z,25.60
2017-08-26T06:34:07.170Z,22.63
2017-08-26T06:36:35.565Z,28.10
2017-08-26T06:39:03.390Z,24.23
2017-08-26T06:41:31.905Z,24.70
2017-08-26T06:44:00.283Z,28.50
2017-08-26T06:46:28.665Z,25.13
2017-08-26T06:48:57.032Z,24.97
2017-08-26T06:51:25.622Z,22.83
2017-08-26T06:53:54.091Z,25.83
2017-08-26T06:56:22.467Z,32.90
2017-08-26T06:58:50.823Z,26.87
2017-08-26T07:01:19.273Z,25.40
2017-08-26T07:03:47.661Z,27.97
2017-08-26T07:06:16.022Z,37.40
2017-08-26T07:08:44.449Z,32.47
2017-08-26T07:11:12.824Z,29.63
2017-08-26T07:13:41.201Z,35.70
2017-08-26T07:16:09.779Z,34.80
2017-08-26T07:18:38.134Z,30.20
2017-08-26T07:21:06.533Z,30.80
2017-08-26T07:23:35.010Z,33.17
2017-08-26T07:26:03.404Z,30.70
2017-08-26T07:28:31.766Z,30.27
2017-08-26T07:31:00.128Z,32.43
2017-08-26T07:33:28.478Z,30.80
2017-08-26T07:35:56.838Z,27.57
2017-08-26T07:38:25.205Z,26.57
2017-08-26T07:40:53.560Z,28.93
2017-08-26T07:43:21.929Z,33.37
2017-08-26T07:45:50.308Z,29.57
2017-08-26T07:48:18.668Z,32.23
2017-08-26T07:50:47.158Z,30.87
2017-08-26T07:53:15.522Z,32.20
2017-08-26T07:55:43.886Z,26.63
2017-08-26T07:58:12.466Z,31.40
2017-08-26T08:00:40.827Z,34.50
2017-08-26T08:03:09.192Z,33.63
2017-08-26T08:05:38.450Z,32.50
2017-08-26T08:08:06.828Z,29.33
2017-08-26T08:10:35.181Z,32.23
2017-08-26T08:13:03.655Z,29.40
2017-08-26T08:15:32.337Z,33.03
2017-08-26T08:18:00.815Z,28.10
2017-08-26T08:20:29.165Z,28.00
2017-08-26T08:22:57.527Z,27.90
2017-08-26T08:25:25.905Z,28.00
2017-08-26T08:27:54.263Z,29.73
2017-08-26T08:30:22.623Z,28.53
2017-08-26T08:32:51.007Z,26.17
2017-08-26T08:35:19.385Z,28.23
2017-08-26T08:37:47.746Z,27.37
2017-08-26T08:40:16.107Z,28.47
2017-08-26T08:42:44.529Z,27.70
2017-08-26T08:45:12.897Z,26.37
2017-08-26T08:47:41.254Z,29.20
2017-08-26T08:50:09.815Z,25.87
2017-08-26T08:52:38.277Z,27.53
2017-08-26T08:55:06.640Z,29.20
2017-08-26T08:57:35.012Z,28.27
2017-08-26T09:00:03.374Z,29.27
2017-08-26T09:02:31.745Z,31.80
2017-08-26T09:05:00.114Z,33.00
2017-08-26T09:07:28.775Z,31.07
2017-08-26T09:09:57.405Z,37.87
2017-08-26T09:12:25.767Z,33.80
2017-08-26T09:14:54.170Z,35.60
2017-08-26T09:17:22.523Z,34.03
2017-08-26T09:19:50.890Z,40.13
2017-08-26T09:22:19.064Z,42.20
2017-08-26T09:24:47.426Z,38.10
2017-08-26T09:27:15.785Z,38.20
2017-08-26T09:29:44.323Z,44.10
2017-08-26T09:32:12.681Z,45.43
2017-08-26T09:34:41.220Z,46.00
2017-08-26T09:37:09.694Z,48.70
2017-08-26T09:39:38.047Z,44.03
2017-08-26T09:42:06.511Z,52.97
2017-08-26T09:44:35.106Z,48.87
2017-08-26T09:47:03.774Z,51.00
2017-08-26T09:49:31.931Z,51.10
2017-08-26T09:52:00.300Z,50.60
2017-08-26T09:54:29.007Z,48.60
2017-08-26T09:56:57.384Z,48.07
2017-08-26T09:59:25.826Z,52.07
2017-08-26T10:01:54.176Z,49.83
2017-08-26T10:04:22.582Z,47.43
2017-08-26T10:06:50.962Z,42.50
2017-08-26T10:09:19.328Z,47.93
2017-08-26T10:11:47.735Z,42.63
2017-08-26T10:14:16.110Z,45.97
2017-08-26T10:16:44.475Z,50.33
2017-08-26T10:19:12.846Z,41.93
2017-08-26T10:21:41.236Z,42.97
2017-08-26T10:24:09.607Z,44.97
2017-08-26T10:26:37.969Z,46.73
2017-08-26T10:29:06.323Z,45.60
2017-08-26T10:31:34.509Z,50.37
2017-08-26T10:34:02.874Z,43.53
2017-08-26T10:36:31.043Z,47.57
2017-08-26T10:38:59.325Z,49.80
2017-08-26T10:41:27.516Z,53.17
2017-08-26T10:43:55.778Z,52.53
2017-08-26T10:46:23.960Z,53.97
2017-08-26T10:48:52.120Z,46.60
2017-08-26T10:51:20.299Z,49.20
2017-08-26T10:53:48.681Z,49.57
2017-08-26T10:56:17.039Z,51.73
2017-08-26T10:58:45.398Z,59.53
2017-08-26T11:01:13.766Z,55.47
2017-08-26T11:03:42.126Z,54.83
2017-08-26T11:06:10.490Z,54.90
2017-08-26T11:08:38.850Z,50.17
2017-08-26T11:11:07.421Z,49.20
2017-08-26T11:13:36.464Z,50.77
2017-08-26T11:16:05.037Z,50.70
2017-08-26T11:18:33.395Z,50.67
2017-08-26T11:21:01.754Z,49.90
2017-08-26T11:23:30.221Z,48.87
2017-08-26T11:25:58.824Z,52.73
2017-08-26T11:28:27.189Z,51.40
2017-08-26T11:30:55.554Z,49.10
2017-08-26T11:33:23.918Z,46.23
2017-08-26T11:35:52.281Z,54.80
2017-08-26T11:38:20.647Z,47.13
2017-08-26T11:40:49.011Z,44.60
2017-08-26T11:43:17.377Z,48.33
2017-08-26T11:45:45.734Z,44.07
2017-08-26T11:48:14.107Z,42.40
2017-08-26T11:50:42.457Z,44.03
2017-08-26T11:53:10.996Z,38.73
2017-08-26T11:55:39.413Z,49.20
2017-08-26T11:58:07.769Z,44.90
2017-08-26T12:00:36.139Z,44.83
2017-08-26T12:03:04.520Z,38.87
2017-08-26T12:05:32.866Z,37.87
2017-08-26T12:08:01.221Z,42.40
2017-08-26T12:10:30.352Z,44.30
2017-08-26T12:12:58.722Z,41.53
2017-08-26T12:15:27.077Z,44.53
2017-08-26T12:17:55.471Z,48.50
2017-08-26T12:20:24.095Z,42.13
2017-08-26T12:22:52.441Z,39.47
2017-08-26T12:25:20.830Z,44.27
2017-08-26T12:27:49.217Z,40.50
2017-08-26T12:30:17.658Z,48.17
2017-08-26T12:32:46.022Z,37.23
2017-08-26T12:35:14.456Z,40.50
2017-08-26T12:37:42.808Z,36.20
2017-08-26T12:40:11.170Z,49.33
2017-08-26T12:42:39.543Z,41.50
2017-08-26T12:45:07.932Z,30.17
2017-08-26T12:47:36.325Z,38.33
2017-08-26T12:50:04.678Z,37.23
2017-08-26T12:52:33.812Z,41.73
2017-08-26T12:55:02.170Z,35.17
2017-08-26T12:57:30.530Z,33.50
2017-08-26T12:59:59.654Z,44.40
2017-08-26T13:02:28.017Z,32.60
2017-08-26T13:04:56.598Z,42.50
2017-08-26T13:07:25.073Z,38.33
2017-08-26T13:09:53.448Z,37.03
2017-08-26T13:12:21.897Z,33.67
2017-08-26T13:14:50.253Z,35.23
2017-08-26T13:17:18.628Z,35.73
2017-08-26T13:19:46.987Z,37.30
2017-08-26T13:22:15.346Z,29.10
2017-08-26T13:24:44.070Z,22.20
2017-08-26T13:27:12.426Z,21.13
2017-08-26T13:29:41.009Z,23.43
2017-08-26T13:32:09.371Z,16.10
2017-08-26T13:34:37.755Z,12.40
2017-08-26T13:37:06.107Z,16.73
2017-08-26T13:39:34.469Z,16.73
2017-08-26T13:42:03.603Z,18.97
2017-08-26T13:44:31.967Z,14.10
2017-08-26T13:47:00.338Z,13.40
2017-08-26T13:49:28.689Z,12.53
2017-08-26T13:51:56.708Z,12.93
2017-08-26T13:54:25.152Z,12.50
2017-08-26T13:56:53.752Z,18.30
2017-08-26T13:59:22.113Z,12.33
2017-08-26T14:01:50.472Z,14.13
2017-08-26T14:04:18.839Z,15.30
2017-08-26T14:06:47.216Z,12.23
2017-08-26T14:09:15.571Z,23.80
2017-08-26T14:11:43.943Z,11.83
2017-08-26T14:14:12.293Z,13.40
2017-08-26T14:16:40.668Z,11.60
2017-08-26T14:19:09.035Z,13.50
2017-08-26T14:21:37.398Z,16.43
2017-08-26T14:24:05.754Z,12.43
2017-08-26T14:26:34.110Z,11.00
2017-08-26T14:29:02.466Z,10.00
2017-08-26T14:31:30.862Z,11.37
2017-08-26T14:33:59.227Z,14.23
2017-08-26T14:36:28.364Z,17.77
2017-08-26T14:38:56.718Z,17.10
2017-08-26T14:41:25.088Z,13.60
2017-08-26T14:43:53.447Z,15.07
2017-08-26T14:46:21.803Z,16.13
2017-08-26T14:48:50.169Z,16.40
2017-08-26T14:51:18.526Z,17.00
2017-08-26T14:53:46.881Z,18.40
2017-08-26T14:56:15.253Z,12.77
2017-08-26T14:58:43.610Z,13.07
2017-08-26T15:01:11.979Z,15.43
2017-08-26T15:03:40.339Z,29.47
2017-08-26T15:06:08.749Z,21.40
2017-08-26T15:08:37.124Z,17.03
2017-08-26T15:11:05.541Z,20.17
2017-08-26T15:13:33.900Z,14.70
2017-08-26T15:16:02.261Z,15.10
2017-08-26T15:18:30.623Z,17.93
2017-08-26T15:20:58.979Z,18.87
2017-08-26T15:23:27.342Z,20.20
2017-08-26T15:25:55.719Z,20.70
2017-08-26T15:28:24.079Z,20.40
2017-08-26T15:30:52.434Z,22.60
2017-08-26T15:33:21.554Z,19.60
2017-08-26T15:35:49.913Z,20.47
2017-08-26T15:38:18.284Z,23.23
2017-08-26T15:40:46.826Z,25.13
2017-08-26T15:43:15.247Z,19.30
2017-08-26T15:45:44.499Z,21.40
2017-08-26T15:48:12.845Z,23.47
2017-08-26T15:50:41.249Z,18.10
2017-08-26T15:53:09.606Z,20.83
2017-08-26T15:55:37.965Z,19.03
2017-08-26T15:58:06.336Z,21.83
2017-08-26T16:00:34.755Z,21.87
2017-08-26T16:03:03.115Z,26.23
2017-08-26T16:05:31.581Z,25.80
2017-08-26T16:07:59.939Z,24.20
2017-08-26T16:10:28.304Z,28.13
2017-08-26T16:12:56.659Z,19.17
2017-08-26T16:15:25.262Z,19.60
2017-08-26T16:17:53.617Z,20.03
2017-08-26T16:20:21.978Z,20.70
2017-08-26T16:22:50.355Z,22.73
2017-08-26T16:25:18.719Z,18.43
2017-08-26T16:27:47.074Z,16.77
2017-08-26T16:30:15.448Z,21.80
2017-08-26T16:32:43.809Z,18.80
2017-08-26T16:35:12.179Z,17.33
2017-08-26T16:37:40.358Z,20.20
2017-08-26T16:40:09.493Z,14.40
2017-08-26T16:42:37.862Z,18.67
2017-08-26T16:45:06.227Z,16.50
2017-08-26T16:47:34.610Z,24.13
2017-08-26T16:50:03.044Z,22.63
2017-08-26T16:52:32.407Z,20.60
2017-08-26T16:55:00.762Z,22.43
2017-08-26T16:57:29.244Z,20.63
2017-08-26T16:59:57.594Z,31.93
2017-08-26T17:02:25.956Z,21.67
2017-08-26T17:04:54.327Z,22.03
2017-08-26T17:07:23.442Z,23.40
2017-08-26T17:09:51.832Z,25.40
2017-08-26T17:12:20.181Z,19.83
2017-08-26T17:14:48.625Z,18.43
2017-08-26T17:17:16.819Z,22.53
2017-08-26T17:19:45.184Z,20.07
2017-08-26T17:22:13.538Z,18.17
2017-08-26T17:24:41.984Z,19.33
2017-08-26T17:27:10.463Z,17.90
2017-08-26T17:29:38.809Z,15.83
2017-08-26T17:32:07.180Z,17.50
2017-08-26T17:34:35.539Z,18.40
2017-08-26T17:37:04.095Z,15.93
2017-08-26T17:39:32.466Z,14.63
2017-08-26T17:42:00.921Z,10.90
2017-08-26T17:44:29.299Z,11.20
2017-08-26T17:46:57.738Z,14.60
2017-08-26T17:49:26.316Z,14.40
2017-08-26T17:51:54.683Z,18.40
2017-08-26T17:54:23.055Z,17.33
2017-08-26T17:56:51.483Z,15.60
2017-08-26T17:59:19.851Z,17.83
2017-08-26T18:01:48.240Z,18.23
2017-08-26T18:04:16.609Z,19.50
2017-08-26T18:06:44.960Z,15.97
2017-08-26T18:09:13.423Z,16.83
2017-08-26T18:11:41.799Z,18.70
2017-08-26T18:14:10.174Z,19.00
2017-08-26T18:16:38.526Z,15.40
2017-08-26T18:19:06.902Z,18.73
2017-08-26T18:21:35.266Z,20.50
2017-08-26T18:24:03.635Z,20.90
2017-08-26T18:26:31.999Z,21.20
2017-08-26T18:29:00.371Z,20.23
2017-08-26T18:31:28.721Z,21.70
2017-08-26T18:33:57.221Z,21.90
2017-08-26T18:36:25.653Z,31.70
2017-08-26T18:38:54.019Z,20.83
2017-08-26T18:41:22.630Z,24.27
2017-08-26T18:43:50.985Z,26.07
2017-08-26T18:46:19.346Z,21.80
2017-08-26T18:48:47.708Z,22.20
2017-08-26T18:51:16.160Z,20.50
2017-08-26T18:53:44.505Z,19.13
2017-08-26T18:56:13.829Z,19.57
2017-08-26T18:58:42.313Z,21.63
2017-08-26T19:01:10.868Z,21.93
2017-08-26T19:03:39.236Z,20.53
2017-08-26T19:06:08.572Z,22.30
2017-08-26T19:08:37.102Z,19.67
2017-08-26T19:11:05.474Z,17.10
2017-08-26T19:13:34.304Z,24.30
2017-08-26T19:16:02.658Z,23.07
2017-08-26T19:18:31.023Z,21.40
2017-08-26T19:20:59.391Z,20.13
2017-08-26T19:23:27.765Z,20.77
2017-08-26T19:25:57.104Z,20.80
2017-08-26T19:28:25.450Z,21.70
2017-08-26T19:30:53.825Z,22.20
2017-08-26T19:33:22.234Z,24.30
2017-08-26T19:35:50.609Z,20.87
2017-08-26T19:38:18.983Z,25.07
2017-08-26T19:40:47.461Z,22.17
2017-08-26T19:43:15.909Z,22.70
2017-08-26T19:45:44.277Z,23.40
2017-08-26T19:48:12.643Z,22.53
2017-08-26T19:50:40.786Z,24.20
2017-08-26T19:53:09.154Z,23.77
2017-08-26T19:55:37.526Z,23.97
2017-08-26T19:58:05.907Z,23.67
2017-08-26T20:00:34.466Z,25.83
2017-08-26T20:03:02.893Z,26.30
2017-08-26T20:05:31.523Z,25.50
2017-08-26T20:07:59.895Z,30.50
2017-08-26T20:10:28.054Z,29.70
2017-08-26T20:12:56.439Z,28.27
2017-08-26T20:15:24.623Z,29.70
2017-08-26T20:17:53.000Z,27.47
2017-08-26T20:20:21.376Z,25.10
2017-08-26T20:22:49.849Z,28.60
2017-08-26T20:25:18.294Z,29.20
2017-08-26T20:27:46.659Z,29.23
2017-08-26T20:30:15.041Z,26.60
2017-08-26T20:32:44.112Z,30.47
2017-08-26T20:35:12.480Z,29.63
2017-08-26T20:37:41.101Z,30.60
2017-08-26T20:40:09.462Z,38.07
2017-08-26T20:42:38.017Z,24.93
2017-08-26T20:45:06.375Z,25.63
2017-08-26T20:47:34.742Z,29.37
2017-08-26T20:50:03.111Z,28.10
2017-08-26T20:52:31.583Z,28.47
2017-08-26T20:54:59.763Z,26.97
2017-08-26T20:57:27.958Z,36.30
2017-08-26T20:59:56.131Z,38.60
2017-08-26T21:02:24.342Z,32.67
2017-08-26T21:04:52.749Z,29.63
2017-08-26T21:07:21.131Z,32.13
2017-08-26T21:09:49.492Z,30.53
2017-08-26T21:12:18.295Z,41.63
2017-08-26T21:14:46.903Z,33.97
2017-08-26T21:17:15.353Z,33.30
2017-08-26T21:19:43.935Z,36.93
2017-08-26T21:22:12.326Z,34.40
2017-08-26T21:24:40.686Z,36.73
2017-08-26T21:27:09.150Z,32.43
2017-08-26T21:29:37.590Z,34.33
2017-08-26T21:32:06.212Z,33.23
2017-08-26T21:34:34.574Z,34.90
2017-08-26T21:37:02.961Z,33.27
2017-08-26T21:39:31.326Z,38.03
2017-08-26T21:41:59.697Z,34.67
2017-08-26T21:44:28.062Z,32.30
2017-08-26T21:46:56.416Z,37.77
2017-08-26T21:49:24.796Z,33.83
2017-08-26T21:51:53.147Z,34.27
2017-08-26T21:54:21.519Z,33.53
2017-08-26T21:56:49.885Z,31.87
2017-08-26T21:59:18.246Z,39.77
2017-08-26T22:01:46.627Z,31.83
2017-08-26T22:04:14.989Z,32.50
2017-08-26T22:06:43.373Z,35.00
2017-08-26T22:09:11.732Z,31.83
2017-08-26T22:11:40.111Z,30.47
2017-08-26T22:14:08.296Z,30.53
2017-08-26T22:16:36.880Z,31.33
2017-08-26T22:19:05.221Z,28.97
2017-08-26T22:21:33.587Z,33.63
2017-08-26T22:24:01.997Z,28.83
2017-08-26T22:26:30.476Z,33.67
2017-08-26T22:28:58.929Z,30.37
2017-08-26T22:31:27.277Z,30.00
2017-08-26T22:33:55.637Z,27.80
2017-08-26T22:36:24.011Z,29.67
2017-08-26T22:38:52.388Z,32.00
2017-08-26T22:41:20.751Z,30.80
2017-08-26T22:43:49.167Z,32.07
2017-08-26T22:46:17.573Z,32.60
2017-08-26T22:48:45.971Z,32.87
2017-08-26T22:51:14.553Z,29.90
2017-08-26T22:53:42.926Z,39.13
2017-08-26T22:56:11.166Z,35.43
2017-08-26T22:58:39.669Z,35.80
2017-08-26T23:01:08.043Z,35.40
2017-08-26T23:03:36.727Z,33.90
2017-08-26T23:06:05.171Z,36.50
2017-08-26T23:08:33.577Z,36.67
2017-08-26T23:11:01.925Z,32.20
2017-08-26T23:13:30.281Z,33.87
2017-08-26T23:15:58.659Z,37.87
2017-08-26T23:18:27.026Z,35.70
2017-08-26T23:20:55.605Z,32.67
2017-08-26T23:23:24.039Z,39.40
2017-08-26T23:25:52.411Z,37.90
2017-08-26T23:28:20.770Z,35.30
2017-08-26T23:30:49.131Z,36.93
2017-08-26T23:33:17.539Z,37.97
2017-08-26T23:35:45.920Z,42.80
2017-08-26T23:38:14.598Z,43.20
2017-08-26T23:40:42.970Z,42.67
2017-08-26T23:43:11.318Z,42.70
2017-08-26T23:45:39.830Z,47.70
2017-08-26T23:48:08.182Z,50.23
2017-08-26T23:50:36.581Z,47.10
2017-08-26T23:53:04.956Z,47.67
2017-08-26T23:55:33.312Z,53.73
2017-08-26T23:58:01.665Z,52.30
